Time;durP1;ratioP1;P1;durP2;ratioP2;P2;SDS_P1;SDS_P2;PMS_P1;PMS_P2;Temp;Humidity;BMP_temperature;BMP_pressure;BME280_temperature;BME280_humidity;BME280_pressure;Samples;Min_cycle;Max_cycle;Signal;HPM_P1;HPM_P2
2022/05/21 00:00:33;;;;;;;12.93;3.95;;;;;;;11.59;nan;101659.31;5094907;28;20031;-46
2022/05/21 00:02:58;;;;;;;16.70;4.22;;;;;;;11.63;nan;101668.88;5094651;28;20031;-47
2022/05/21 00:05:26;;;;;;;9.52;3.25;;;;;;;11.95;nan;101724.41;5112830;28;20042;-51
2022/05/21 00:07:52;;;;;;;15.60;4.30;;;;;;;11.96;nan;101712.97;5113078;28;20027;-46
2022/05/21 00:10:19;;;;;;;18.42;5.00;;;;;;;11.77;nan;101680.00;5112694;28;20494;-50
2022/05/21 00:12:44;;;;;;;16.83;4.18;;;;;;;11.96;nan;101706.81;5112927;28;20063;-48
2022/05/21 00:15:11;;;;;;;12.27;3.70;;;;;;;11.80;nan;101666.75;5112801;28;20446;-48
2022/05/21 00:17:37;;;;;;;13.45;4.10;;;;;;;11.88;nan;101683.25;5077533;28;20027;-47
2022/05/21 00:20:03;;;;;;;15.98;4.72;;;;;;;11.97;nan;101683.03;5112902;28;20091;-49
2022/05/21 00:22:28;;;;;;;15.63;5.07;;;;;;;11.98;nan;101673.34;5112710;28;20055;-49
2022/05/21 00:24:53;;;;;;;15.43;4.82;;;;;;;12.02;nan;101675.88;5094517;28;20055;-50
2022/05/21 00:27:19;;;;;;;14.45;4.50;;;;;;;12.41;nan;101735.56;5112759;28;20119;-48
2022/05/21 00:29:44;;;;;;;18.85;4.55;;;;;;;12.49;nan;101735.38;5094597;28;20075;-51
2022/05/21 00:32:10;;;;;;;17.27;4.47;;;;;;;12.31;nan;101698.91;5112500;28;20478;-49
2022/05/21 00:34:35;;;;;;;15.75;4.85;;;;;;;11.95;nan;101615.38;5112734;28;20492;-48
2022/05/21 00:37:01;;;;;;;12.13;4.30;;;;;;;12.63;nan;101727.97;5112724;28;20036;-50
2022/05/21 00:39:27;;;;;;;18.15;5.75;;;;;;;12.39;nan;101679.31;5112713;28;20420;-51
2022/05/21 00:41:52;;;;;;;18.70;4.72;;;;;;;12.70;nan;101726.00;5112334;28;20036;-50
2022/05/21 00:44:18;;;;;;;17.10;4.72;;;;;;;12.41;nan;101684.53;5093732;28;20051;-47
2022/05/21 00:46:44;;;;;;;18.10;5.07;;;;;;;12.77;nan;101746.94;5112326;28;20051;-48
2022/05/21 00:49:17;;;;;;;17.60;4.95;;;;;;;12.83;nan;101744.13;5094039;28;20085;-48
2022/05/21 00:52:02;;;;;;;14.07;4.30;;;;;;;12.85;nan;101731.75;5077401;28;20455;-50
2022/05/21 00:54:31;;;;;;;15.95;4.82;;;;;;;12.89;nan;101753.66;5094222;28;20039;-49
2022/05/21 00:57:05;;;;;;;16.33;4.63;;;;;;;12.92;nan;101743.03;5094066;28;20036;-46
2022/05/21 00:59:50;;;;;;;15.95;4.43;;;;;;;12.69;nan;101705.78;5112473;28;20035;-47
2022/05/21 01:02:23;;;;;;;15.55;4.65;;;;;;;12.65;nan;101680.38;5112392;28;20119;-48
2022/05/21 01:04:49;;;;;;;13.40;4.25;;;;;;;12.64;nan;101676.00;5112303;28;20024;-47
2022/05/21 01:07:15;;;;;;;15.35;3.90;;;;;;;13.03;nan;101743.59;5093967;28;20026;-48
2022/05/21 01:09:50;;;;;;;18.05;4.47;;;;;;;12.80;nan;101712.53;5093951;28;20386;-48
2022/05/21 01:12:16;;;;;;;18.65;4.18;;;;;;;12.65;nan;101686.53;5094064;28;20031;-48
2022/05/21 01:14:41;;;;;;;22.75;5.18;;;;;;;12.95;nan;101738.53;5094481;28;20027;-54
2022/05/21 01:17:07;;;;;;;20.90;5.38;;;;;;;12.65;nan;101693.56;5112192;28;20111;-48
2022/05/21 01:19:52;;;;;;;14.35;4.13;;;;;;;12.99;nan;101755.13;5112517;28;20464;-50
2022/05/21 01:22:17;;;;;;;20.33;4.93;;;;;;;12.61;nan;101698.06;5112291;28;20039;-48
2022/05/21 01:24:43;;;;;;;24.30;5.70;;;;;;;12.93;nan;101750.88;5112340;28;20081;-49
2022/05/21 01:27:08;;;;;;;22.85;4.93;;;;;;;12.84;nan;101735.28;5111923;28;20127;-50
2022/05/21 01:29:34;;;;;;;19.77;4.13;;;;;;;12.62;nan;101704.22;5112127;28;20059;-44
2022/05/21 01:31:59;;;;;;;16.55;4.35;;;;;;;12.90;nan;101761.53;5112013;28;20031;-51
2022/05/21 01:34:26;;;;;;;17.25;4.65;;;;;;;12.58;nan;101695.50;5111949;28;20051;-50
2022/05/21 01:36:52;;;;;;;17.48;4.30;;;;;;;12.80;nan;101756.56;5093932;28;20038;-48
2022/05/21 01:39:18;;;;;;;16.42;4.45;;;;;;;12.78;nan;101758.38;5093951;28;20127;-47
2022/05/21 01:41:44;;;;;;;16.20;4.63;;;;;;;12.77;nan;101764.56;5112017;28;20039;-46
2022/05/21 01:46:54;;;;;;;18.35;4.60;;;;;;;12.59;nan;101736.88;5111948;28;20051;-47
2022/05/21 01:49:20;;;;;;;17.00;4.93;;;;;;;12.35;nan;101708.44;5076668;28;20475;-46
2022/05/21 01:51:45;;;;;;;19.73;4.05;;;;;;;12.32;nan;101706.75;5112193;28;20039;-49
2022/05/21 01:54:10;;;;;;;20.00;5.20;;;;;;;12.53;nan;101739.66;5111748;28;20061;-51
2022/05/21 01:56:36;;;;;;;18.90;4.22;;;;;;;12.62;nan;101757.91;5114200;28;20537;-46
2022/05/21 01:59:01;;;;;;;20.75;4.95;;;;;;;11.89;nan;101634.00;5115376;28;20110;-47
2022/05/21 02:01:26;;;;;;;20.50;5.03;;;;;;;12.13;nan;101692.31;5115392;28;20035;-50
2022/05/21 02:03:51;;;;;;;15.95;4.60;;;;;;;12.10;nan;101694.16;5115217;28;20039;-49
2022/05/21 02:06:17;;;;;;;19.60;4.90;;;;;;;12.42;nan;101752.28;5115437;28;20528;-46
2022/05/21 02:08:42;;;;;;;18.48;4.38;;;;;;;12.38;nan;101747.97;5115431;28;20031;-48
2022/05/21 02:11:08;;;;;;;19.40;4.55;;;;;;;12.05;nan;101691.66;5115225;28;20032;-46
2022/05/21 02:13:34;;;;;;;20.23;4.03;;;;;;;12.03;nan;101698.72;5115218;28;20040;-46
2022/05/21 02:15:59;;;;;;;19.02;4.43;;;;;;;12.31;nan;101752.56;5096932;28;20032;-52
2022/05/21 02:18:25;;;;;;;27.42;5.25;;;;;;;12.30;nan;101756.09;5096764;28;20119;-48
2022/05/21 02:20:52;;;;;;;22.13;4.82;;;;;;;12.29;nan;101764.03;5096673;28;20494;-51
2022/05/21 02:23:17;;;;;;;19.20;4.65;;;;;;;11.88;nan;101691.16;5096855;28;20038;-51
2022/05/21 02:25:43;;;;;;;20.55;4.10;;;;;;;11.91;nan;101708.72;5096853;28;20032;-51
2022/05/21 02:28:09;;;;;;;14.30;4.40;;;;;;;12.13;nan;101749.50;5115275;28;20039;-47
2022/05/21 02:30:35;;;;;;;16.13;4.13;;;;;;;12.07;nan;101742.59;5097030;28;20031;-48
2022/05/21 02:33:00;;;;;;;18.80;3.95;;;;;;;11.81;nan;101705.41;5114526;28;20086;-48
2022/05/21 02:35:25;;;;;;;23.70;4.55;;;;;;;11.97;nan;101733.16;5114117;28;20036;-46
2022/05/21 02:40:35;;;;;;;18.38;4.22;;;;;;;11.71;nan;101694.22;5114658;28;20541;-49
2022/05/21 02:43:00;;;;;;;12.10;4.25;;;;;;;12.03;nan;101758.53;5114959;28;20036;-47
2022/05/21 02:45:27;;;;;;;15.13;3.97;;;;;;;11.60;nan;101680.38;5114546;28;20140;-47
2022/05/21 02:47:53;;;;;;;14.52;3.92;;;;;;;11.81;nan;101735.31;5114819;28;20028;-48
2022/05/21 02:50:25;;;;;;;20.48;4.47;;;;;;;11.97;nan;101761.31;5114685;28;20038;-48
2022/05/21 02:52:50;;;;;;;16.02;3.85;;;;;;;11.99;nan;101770.06;5114407;28;20540;-51
2022/05/21 02:55:17;;;;;;;18.27;4.30;;;;;;;11.60;nan;101703.25;5114359;28;20027;-47
2022/05/21 02:57:42;;;;;;;18.77;4.50;;;;;;;11.61;nan;101712.91;5114331;28;20027;-48
2022/05/21 03:00:23;;;;;;;19.77;3.00;;;;;;;11.69;nan;101732.94;5095724;28;20027;-49
2022/05/21 03:02:48;;;;;;;14.03;3.83;;;;;;;11.94;nan;101766.69;5114399;28;20118;-49
2022/05/21 03:05:13;;;;;;;18.60;4.28;;;;;;;11.59;nan;101710.28;5095995;28;20114;-47
2022/05/21 03:07:41;;;;;;;15.77;3.53;;;;;;;11.93;nan;101764.94;5113822;28;20031;-50
2022/05/21 03:10:23;;;;;;;15.98;3.85;;;;;;;11.59;nan;101705.00;5114024;28;20031;-49
2022/05/21 03:12:59;;;;;;;16.55;3.58;;;;;;;11.91;nan;101759.69;5113986;28;20084;-47
2022/05/21 03:15:37;;;;;;;19.60;5.38;;;;;;;11.93;nan;101775.50;5114106;28;20398;-49
2022/05/21 03:18:08;;;;;;;15.30;4.53;;;;;;;11.91;nan;101775.50;5114055;28;20034;-47
2022/05/21 03:20:34;;;;;;;16.73;3.42;;;;;;;11.82;nan;101758.13;5113769;28;20432;-48
2022/05/21 03:22:59;;;;;;;14.40;3.47;;;;;;;11.50;nan;101715.75;5113593;28;20060;-49
2022/05/21 03:25:24;;;;;;;16.02;4.50;;;;;;;11.54;nan;101729.75;5113518;28;20474;-47
2022/05/21 03:27:50;;;;;;;12.52;3.78;;;;;;;11.76;nan;101781.16;5113941;28;20035;-48
2022/05/21 03:30:19;;;;;;;12.10;3.03;;;;;;;11.44;nan;101736.13;5114157;28;20262;-49
2022/05/21 03:32:45;;;;;;;18.58;4.10;;;;;;;11.73;nan;101789.97;5113631;28;20400;-52
2022/05/21 03:35:12;;;;;;;21.13;4.10;;;;;;;11.65;nan;101769.91;5095174;28;20043;-49
2022/05/21 03:37:38;;;;;;;17.77;4.05;;;;;;;11.71;nan;101802.34;5113660;28;20030;-51
2022/05/21 03:40:06;;;;;;;13.10;3.72;;;;;;;11.44;nan;101755.44;5113646;28;20040;-48
2022/05/21 03:42:31;;;;;;;15.32;4.07;;;;;;;11.29;nan;101719.72;5113646;28;20436;-50
2022/05/21 03:44:56;;;;;;;13.93;3.38;;;;;;;11.63;nan;101777.00;5113528;28;20114;-49
2022/05/21 03:47:22;;;;;;;14.25;4.10;;;;;;;11.68;nan;101785.69;5113506;28;20081;-49
2022/05/21 03:49:47;;;;;;;16.95;3.92;;;;;;;11.69;nan;101792.69;5113387;28;20104;-52
2022/05/21 03:52:12;;;;;;;14.25;3.65;;;;;;;11.64;nan;101798.09;5113273;28;20498;-49
2022/05/21 03:54:38;;;;;;;13.43;4.07;;;;;;;11.66;nan;101798.91;5113423;28;20035;-51
2022/05/21 03:57:04;;;;;;;19.50;4.38;;;;;;;11.37;nan;101740.66;5113272;28;20031;-46
2022/05/21 03:59:30;;;;;;;17.55;3.83;;;;;;;11.70;nan;101795.31;5113074;28;20081;-49
2022/05/21 04:01:55;;;;;;;23.30;5.28;;;;;;;11.71;nan;101796.19;5113085;28;20039;-48
2022/05/21 04:04:20;;;;;;;17.45;4.18;;;;;;;11.46;nan;101745.75;5113084;28;20059;-50
2022/05/21 04:06:46;;;;;;;19.83;5.43;;;;;;;11.39;nan;101738.84;5113022;28;20072;-49
2022/05/21 04:09:12;;;;;;;15.95;4.07;;;;;;;11.24;nan;101712.81;5094995;28;20040;-49
2022/05/21 04:11:37;;;;;;;11.90;3.25;;;;;;;11.73;nan;101804.97;5094982;28;20028;-54
2022/05/21 04:14:02;;;;;;;14.88;3.33;;;;;;;11.73;nan;101810.25;5112965;28;20036;-53
2022/05/21 04:16:28;;;;;;;15.38;3.92;;;;;;;11.41;nan;101747.63;5112954;28;20032;-49
2022/05/21 04:18:53;;;;;;;13.90;3.35;;;;;;;11.73;nan;101803.16;5093788;28;20036;-52
2022/05/21 04:21:19;;;;;;;16.23;4.05;;;;;;;11.70;nan;101794.47;5112411;28;20098;-48
2022/05/21 04:23:44;;;;;;;10.23;3.72;;;;;;;11.77;nan;101814.53;5112929;28;20432;-51
2022/05/21 04:26:10;;;;;;;13.40;3.70;;;;;;;11.80;nan;101817.09;5112743;28;20092;-49
2022/05/21 04:28:35;;;;;;;14.93;3.72;;;;;;;11.38;nan;101755.59;5112967;28;20143;-49
2022/05/21 04:31:00;;;;;;;13.95;3.65;;;;;;;11.44;nan;101765.97;5112731;28;20035;-51
2022/05/21 04:33:26;;;;;;;11.82;3.47;;;;;;;11.71;nan;101814.66;5112706;28;20039;-49
2022/05/21 04:38:35;;;;;;;13.18;3.45;;;;;;;11.40;nan;101766.09;5112887;28;20222;-47
2022/05/21 04:41:01;;;;;;;13.73;3.70;;;;;;;11.72;nan;101825.19;5112524;28;20526;-47
2022/05/21 04:43:26;;;;;;;23.25;3.95;;;;;;;11.76;nan;101834.75;5112574;28;20039;-51
2022/05/21 04:45:54;;;;;;;13.65;3.28;;;;;;;11.71;nan;101826.09;5112463;28;20077;-49
2022/05/21 04:48:19;;;;;;;11.00;3.65;;;;;;;11.83;nan;101833.75;5112498;28;20031;-50
2022/05/21 04:50:45;;;;;;;19.02;3.45;;;;;;;11.82;nan;101845.19;5112480;28;20039;-47
2022/05/21 04:53:10;;;;;;;13.98;4.00;;;;;;;11.49;nan;101782.59;5112539;28;20035;-47
2022/05/21 04:55:35;;;;;;;16.83;3.80;;;;;;;11.46;nan;101774.75;5112367;28;20062;-54
2022/05/21 04:58:01;;;;;;;17.55;4.13;;;;;;;11.83;nan;101844.28;5094148;28;20028;-49
2022/05/21 05:00:27;;;;;;;20.25;4.45;;;;;;;11.40;nan;101774.00;5112268;28;20032;-54
2022/05/21 05:02:52;;;;;;;13.23;3.63;;;;;;;11.53;nan;101792.16;5094189;28;20039;-50
2022/05/21 05:05:17;;;;;;;13.55;3.95;;;;;;;11.88;nan;101859.16;5112032;28;20035;-48
2022/05/21 05:07:43;;;;;;;14.00;3.25;;;;;;;11.88;nan;101856.53;5094063;28;20031;-46
2022/05/21 05:10:09;;;;;;;17.85;3.83;;;;;;;11.91;nan;101859.09;5094136;28;20041;-47
2022/05/21 05:12:35;;;;;;;13.95;3.70;;;;;;;11.94;nan;101862.50;5094014;28;20447;-47
2022/05/21 05:15:00;;;;;;;16.60;3.75;;;;;;;11.64;nan;101808.63;5111991;28;20054;-48
2022/05/21 05:17:26;;;;;;;14.13;3.20;;;;;;;11.69;nan;101811.16;5094004;28;20077;-55
2022/05/21 05:19:54;;;;;;;16.38;4.00;;;;;;;12.09;nan;101875.38;5094059;28;20642;-52
2022/05/21 05:22:20;;;;;;;13.68;3.47;;;;;;;11.12;nan;101715.72;5112165;28;20134;-48
2022/05/21 05:24:45;;;;;;;19.58;4.03;;;;;;;12.26;nan;101881.13;5112214;28;20393;-51
2022/05/21 05:27:11;;;;;;;12.40;3.72;;;;;;;12.29;nan;101864.34;5112125;28;20027;-47
2022/05/21 05:29:36;;;;;;;15.40;3.58;;;;;;;12.48;nan;101880.66;5112815;28;20046;-51
2022/05/21 05:32:02;;;;;;;16.88;3.60;;;;;;;12.56;nan;101876.03;5116022;28;20036;-49
2022/05/21 05:34:27;;;;;;;13.68;3.40;;;;;;;11.73;nan;101731.94;5115930;28;20043;-52
2022/05/21 05:36:52;;;;;;;15.70;3.55;;;;;;;12.75;nan;101883.50;5116187;28;20038;-46
2022/05/21 05:39:18;;;;;;;16.45;3.63;;;;;;;12.88;nan;101886.69;5115814;28;20059;-51
2022/05/21 05:41:43;;;;;;;13.57;3.80;;;;;;;12.66;nan;101824.75;5115535;28;20531;-47
2022/05/21 05:44:09;;;;;;;12.65;3.30;;;;;;;12.88;nan;101860.25;5097510;28;20027;-48
2022/05/21 05:46:35;;;;;;;15.65;4.10;;;;;;;13.19;nan;101897.38;5097492;28;20151;-48
2022/05/21 05:49:01;;;;;;;17.10;3.78;;;;;;;13.28;nan;101897.16;5115514;28;20032;-47
2022/05/21 05:51:27;;;;;;;15.18;3.25;;;;;;;12.69;nan;101791.19;5115725;28;20146;-54
2022/05/21 05:53:52;;;;;;;12.68;3.15;;;;;;;13.37;nan;101902.16;5115673;28;20031;-48
2022/05/21 05:56:18;;;;;;;11.25;3.08;;;;;;;13.12;nan;101840.28;5115540;28;20024;-48
2022/05/21 06:01:28;;;;;;;16.42;3.67;;;;;;;13.56;nan;101890.19;5115458;28;20501;-47
2022/05/21 06:03:54;;;;;;;14.02;3.30;;;;;;;13.29;nan;101831.00;5115631;28;20031;-50
2022/05/21 06:06:19;;;;;;;12.20;3.40;;;;;;;13.77;nan;101905.47;5097090;28;20074;-50
2022/05/21 06:08:45;;;;;;;12.27;2.92;;;;;;;13.44;nan;101833.22;5097206;28;20486;-50
2022/05/21 06:11:12;;;;;;;13.18;2.97;;;;;;;13.56;nan;101845.22;5115121;28;20394;-51
2022/05/21 06:13:37;;;;;;;14.45;2.97;;;;;;;13.59;nan;101863.66;5115258;28;20038;-50
2022/05/21 06:16:03;;;;;;;12.25;3.38;;;;;;;13.74;nan;101884.38;5115019;28;20031;-51
2022/05/21 06:18:29;;;;;;;14.80;4.00;;;;;;;14.00;nan;101932.13;5114999;28;20028;-48
2022/05/21 06:20:54;;;;;;;13.25;3.47;;;;;;;14.06;nan;101913.44;5114887;28;20109;-47
2022/05/21 06:23:19;;;;;;;18.98;3.58;;;;;;;14.08;nan;101922.19;5096627;28;20032;-47
2022/05/21 06:25:46;;;;;;;8.70;2.95;;;;;;;14.17;nan;101941.34;5115037;28;20035;-49
2022/05/21 06:28:11;;;;;;;13.38;3.53;;;;;;;14.26;nan;101933.13;5096681;28;20020;-49
2022/05/21 06:30:38;;;;;;;10.07;3.22;;;;;;;14.30;nan;101945.38;5114683;28;20478;-52
2022/05/21 06:33:23;;;;;;;15.65;3.25;;;;;;;13.95;nan;101874.94;5114876;28;20383;-52
2022/05/21 06:36:00;;;;;;;11.95;2.83;;;;;;;14.37;nan;101949.59;5096484;28;20051;-49
2022/05/21 06:38:25;;;;;;;16.50;3.58;;;;;;;14.50;nan;101958.91;5114717;28;20031;-48
2022/05/21 06:40:50;;;;;;;15.07;3.25;;;;;;;14.59;nan;101956.81;5113973;28;20127;-47
2022/05/21 06:43:16;;;;;;;13.45;3.25;;;;;;;14.74;nan;101960.78;5114053;28;20024;-48
2022/05/21 06:45:41;;;;;;;11.32;2.72;;;;;;;14.70;nan;101951.19;5114528;28;20035;-47
2022/05/21 06:48:09;;;;;;;13.82;2.95;;;;;;;14.89;nan;101970.88;5114595;28;20028;-49
2022/05/21 06:50:37;;;;;;;15.82;3.78;;;;;;;15.01;nan;101978.44;5114533;28;20031;-51
2022/05/21 06:53:02;;;;;;;16.73;4.40;;;;;;;14.84;nan;101948.97;5096008;28;20034;-46
2022/05/21 06:55:27;;;;;;;11.77;2.88;;;;;;;14.97;nan;101987.41;5114099;28;20024;-48
2022/05/21 06:57:53;;;;;;;10.52;2.90;;;;;;;14.98;nan;101990.94;5113990;28;20432;-52
2022/05/21 07:00:23;;;;;;;16.35;3.33;;;;;;;14.72;nan;101920.22;5113871;28;20170;-50
2022/05/21 07:02:53;;;;;;;16.65;3.55;;;;;;;14.81;nan;101930.50;5096044;28;20115;-48
2022/05/21 07:08:05;;;;;;;16.92;3.33;;;;;;;15.13;nan;101956.84;5098813;28;20390;-51
2022/05/21 07:10:31;;;;;;;15.05;3.55;;;;;;;15.33;nan;101976.50;5114336;28;20027;-48
2022/05/21 07:12:57;;;;;;;13.70;3.03;;;;;;;15.29;nan;101956.31;5114195;28;20043;-50
2022/05/21 07:15:22;;;;;;;13.27;3.25;;;;;;;15.52;nan;101990.94;5114023;28;20031;-46
2022/05/21 07:17:48;;;;;;;12.15;3.50;;;;;;;15.56;nan;101995.19;5096111;28;20038;-46
2022/05/21 07:20:21;;;;;;;12.73;3.60;;;;;;;15.62;nan;102010.91;5095529;28;20040;-47
2022/05/21 07:22:48;;;;;;;9.23;3.08;;;;;;;15.73;nan;102022.03;5113885;28;20056;-46
2022/05/21 07:25:18;;;;;;;10.82;2.55;;;;;;;16.04;nan;102017.34;5095627;28;20031;-48
2022/05/21 07:27:44;;;;;;;8.57;2.63;;;;;;;15.97;nan;101964.50;5113564;28;20072;-46
2022/05/21 07:30:10;;;;;;;12.52;3.05;;;;;;;16.71;nan;102015.72;5113663;28;20110;-45
2022/05/21 07:32:35;;;;;;;11.90;2.92;;;;;;;16.56;nan;101986.19;5095374;28;20047;-46
2022/05/21 07:35:09;;;;;;;10.85;2.85;;;;;;;17.21;nan;102042.94;5113592;28;20382;-53
2022/05/21 07:37:35;;;;;;;12.13;2.95;;;;;;;17.70;nan;102038.25;5095685;28;20422;-46
2022/05/21 07:40:01;;;;;;;8.70;2.85;;;;;;;17.99;nan;102044.06;5095387;28;20080;-47
2022/05/21 07:42:26;;;;;;;13.10;3.15;;;;;;;17.58;nan;101998.84;5095151;28;20028;-45
2022/05/21 07:44:52;;;;;;;12.38;3.22;;;;;;;18.28;nan;102071.19;5113366;28;20030;-47
2022/05/21 07:47:22;;;;;;;12.68;3.65;;;;;;;18.44;nan;102062.47;5107917;28;20035;-48
2022/05/21 07:49:48;;;;;;;10.75;3.35;;;;;;;18.53;nan;102027.38;5112684;28;20044;-47
2022/05/21 07:52:14;;;;;;;10.15;2.67;;;;;;;18.94;nan;102041.44;5102981;28;20061;-44
2022/05/21 07:54:39;;;;;;;14.77;3.50;;;;;;;19.29;nan;102079.78;5074678;28;20164;-46
2022/05/21 07:57:04;;;;;;;9.50;3.25;;;;;;;19.49;nan;102094.84;5111856;28;20028;-47
2022/05/21 07:59:30;;;;;;;12.00;3.13;;;;;;;19.16;nan;102059.94;5112657;28;20030;-46
2022/05/21 08:01:56;;;;;;;13.15;2.88;;;;;;;19.67;nan;102077.91;5093777;28;20035;-45
2022/05/21 08:04:21;;;;;;;9.57;2.63;;;;;;;19.74;nan;102041.03;5112419;28;20032;-46
2022/05/21 08:06:47;;;;;;;12.32;3.63;;;;;;;20.04;nan;102091.09;5094288;28;20042;-47
2022/05/21 08:09:12;;;;;;;13.98;3.25;;;;;;;20.08;nan;102041.03;5077272;28;20032;-48
2022/05/21 08:11:37;;;;;;;9.20;3.13;;;;;;;20.39;nan;102051.81;5091998;28;20064;-48
2022/05/21 08:14:03;;;;;;;10.43;3.30;;;;;;;20.13;nan;102030.94;5086825;28;20396;-52
2022/05/21 08:16:29;;;;;;;10.52;3.38;;;;;;;20.23;nan;102099.00;5111508;28;20212;-50
2022/05/21 08:18:54;;;;;;;13.00;4.10;;;;;;;20.07;nan;102088.25;5111688;28;20502;-45
2022/05/21 08:21:20;;;;;;;10.77;3.08;;;;;;;19.80;nan;102092.34;5092157;28;20493;-46
2022/05/21 08:29:14;;;;;;;12.23;2.83;;;;;;;20.96;nan;102108.41;5112315;28;20157;-47
2022/05/21 08:31:39;;;;;;;12.60;3.55;;;;;;;20.45;nan;102080.06;5112652;28;20031;-49
2022/05/21 08:34:05;;;;;;;12.05;3.10;;;;;;;20.03;nan;102045.72;5112715;28;20243;-47
2022/05/21 08:36:30;;;;;;;13.73;4.05;;;;;;;20.24;nan;102100.75;5112639;28;20441;-49
2022/05/21 08:38:56;;;;;;;10.77;3.25;;;;;;;20.31;nan;102096.84;5112655;28;20316;-47
2022/05/21 08:41:22;;;;;;;10.48;3.55;;;;;;;20.55;nan;102054.50;5077142;28;20035;-47
2022/05/21 08:44:07;;;;;;;11.27;3.13;;;;;;;20.80;nan;102107.56;5093964;28;20077;-47
2022/05/21 08:46:53;;;;;;;13.68;3.20;;;;;;;21.01;nan;102103.69;5111700;28;20039;-50
2022/05/21 08:49:30;;;;;;;12.25;3.47;;;;;;;20.96;nan;102106.63;5109016;28;20097;-44
2022/05/21 08:52:14;;;;;;;12.80;3.55;;;;;;;20.56;nan;102099.91;5173086;22;20060;-48
2022/05/21 08:54:43;;;;;;;11.48;2.63;;;;;;;20.41;nan;102107.88;5070719;28;20292;-52
2022/05/21 08:57:13;;;;;;;10.65;3.63;;;;;;;19.87;nan;102050.16;5071129;28;20111;-45
2022/05/21 08:59:45;;;;;;;9.63;2.90;;;;;;;20.21;nan;102066.16;5053331;28;20036;-48
2022/05/21 09:02:15;;;;;;;10.48;3.67;;;;;;;20.64;nan;102097.69;5053781;28;20028;-49
2022/05/21 09:04:41;;;;;;;13.27;2.85;;;;;;;20.78;nan;102049.63;5054708;28;20036;-51
2022/05/21 09:07:21;;;;;;;8.52;2.85;;;;;;;21.24;nan;102058.66;5075903;28;20086;-48
2022/05/21 09:10:26;;;;;;;11.52;3.45;;;;;;;21.75;nan;102119.03;5076046;28;20090;-49
2022/05/21 09:12:59;;;;;;;12.23;2.75;;;;;;;21.71;nan;102108.59;5024519;28;20130;-50
2022/05/21 09:18:10;;;;;;;11.35;2.85;;;;;;;21.41;nan;102113.03;5060825;28;20047;-50
2022/05/21 09:20:59;;;;;;;9.48;2.95;;;;;;;21.33;nan;102104.59;5057494;28;20063;-51
2022/05/21 09:23:44;;;;;;;11.75;3.67;;;;;;;21.04;nan;102084.78;5075122;28;20087;-49
2022/05/21 09:26:09;;;;;;;11.32;2.90;;;;;;;21.16;nan;102106.41;5057862;28;20089;-47
2022/05/21 09:28:38;;;;;;;9.07;2.80;;;;;;;20.72;nan;102105.31;5075414;28;20056;-47
2022/05/21 09:31:05;;;;;;;10.90;3.08;;;;;;;20.31;nan;102082.59;5075385;28;20033;-48
2022/05/21 09:33:36;;;;;;;12.60;3.17;;;;;;;19.98;nan;102090.53;5057516;28;20040;-49
2022/05/21 09:36:02;;;;;;;10.45;2.72;;;;;;;19.88;nan;102108.84;5074951;28;20036;-51
2022/05/21 09:38:47;;;;;;;10.13;2.85;;;;;;;19.41;nan;102052.47;5075368;28;20047;-47
2022/05/21 09:41:20;;;;;;;12.15;3.20;;;;;;;19.35;nan;102108.81;5074464;28;20115;-50
2022/05/21 09:46:36;;;;;;;7.88;2.63;;;;;;;19.41;nan;102103.22;5059935;28;20174;-52
2022/05/21 09:49:22;;;;;;;12.52;3.30;;;;;;;19.69;nan;102109.88;5075451;28;20473;-48
2022/05/21 09:52:08;;;;;;;10.38;3.00;;;;;;;20.23;nan;102103.50;5074620;28;20052;-48
2022/05/21 09:54:46;;;;;;;8.40;2.88;;;;;;;20.43;nan;102114.03;5057077;28;20033;-47
2022/05/21 09:57:28;;;;;;;12.82;3.13;;;;;;;20.11;nan;102084.47;5075167;28;20021;-50
2022/05/21 10:00:04;;;;;;;10.82;3.55;;;;;;;20.18;nan;102119.78;5057252;28;20549;-51
2022/05/21 10:02:39;;;;;;;10.73;3.20;;;;;;;19.49;nan;102049.44;5074809;28;20040;-51
2022/05/21 10:05:08;;;;;;;12.20;3.10;;;;;;;19.43;nan;102125.38;5056802;28;20036;-48
2022/05/21 10:13:13;;;;;;;18.23;3.45;;;;;;;19.16;nan;102139.16;5075109;28;20046;-52
2022/05/21 10:15:43;;;;;;;12.52;3.42;;;;;;;19.47;nan;102128.75;5056239;28;20036;-52
2022/05/21 10:18:34;;;;;;;8.80;2.55;;;;;;;19.67;nan;102133.13;5056654;28;20060;-48
2022/05/21 10:21:03;;;;;;;13.80;3.05;;;;;;;19.99;nan;102133.22;5056601;28;20032;-48
2022/05/21 10:24:16;;;;;;;12.85;3.42;;;;;;;20.27;nan;102146.06;5074589;28;20086;-51
2022/05/21 10:26:50;;;;;;;15.52;4.03;;;;;;;20.06;nan;102131.97;4973922;28;20031;-48
2022/05/21 10:29:34;;;;;;;11.35;2.97;;;;;;;20.29;nan;102133.47;4973449;28;20121;-49
2022/05/21 10:32:21;;;;;;;10.15;2.95;;;;;;;20.40;nan;102144.47;5044291;28;20287;-50
2022/05/21 10:35:09;;;;;;;12.77;3.33;;;;;;;20.76;nan;102144.31;5074398;28;20028;-46
2022/05/21 10:38:20;;;;;;;10.63;3.92;;;;;;;20.51;nan;102107.34;5056920;28;20032;-48
2022/05/21 10:40:52;;;;;;;9.93;2.95;;;;;;;20.62;nan;102121.00;5019392;28;20530;-48
2022/05/21 10:43:25;;;;;;;13.15;2.80;;;;;;;21.20;nan;102139.22;5056378;28;20112;-47
2022/05/21 10:46:05;;;;;;;11.32;3.05;;;;;;;21.32;nan;102168.00;5067069;28;20055;-44
2022/05/21 10:48:47;;;;;;;13.93;3.35;;;;;;;21.02;nan;102142.88;5072637;28;20032;-45
2022/05/21 10:51:54;;;;;;;14.50;2.95;;;;;;;21.35;nan;102154.44;5068451;28;20131;-46
2022/05/21 10:54:44;;;;;;;9.98;2.90;;;;;;;21.18;nan;102147.34;5010739;28;20037;-49
2022/05/21 10:57:19;;;;;;;8.70;3.00;;;;;;;21.15;nan;102160.91;5059828;28;20028;-49
2022/05/21 11:00:13;;;;;;;10.52;2.78;;;;;;;21.15;nan;102138.63;5062959;28;20025;-50
2022/05/21 11:02:54;;;;;;;12.45;2.97;;;;;;;21.67;nan;102163.31;5018068;28;20330;-45
2022/05/21 11:05:47;;;;;;;8.88;2.42;;;;;;;21.94;nan;102159.06;5065839;28;20119;-54
2022/05/21 11:08:18;;;;;;;9.68;2.70;;;;;;;22.00;nan;102166.75;5068487;28;20032;-48
2022/05/21 11:10:59;;;;;;;12.25;2.90;;;;;;;21.95;nan;102154.56;5056894;28;20028;-50
2022/05/21 11:13:27;;;;;;;;;;;;;;;21.88;nan;102169.28;5073632;28;20475;-48
2022/05/21 11:16:35;;;;;;;12.88;3.97;;;;;;;22.03;nan;102161.22;5043210;28;19939;-47
2022/05/21 11:19:08;;;;;;;10.60;2.75;;;;;;;22.41;nan;102162.44;4972718;28;20125;-49
2022/05/21 11:21:39;;;;;;;9.02;3.20;;;;;;;22.15;nan;102114.03;5055221;28;20082;-46
2022/05/21 11:24:30;;;;;;;9.93;2.97;;;;;;;22.43;nan;102165.03;5041407;28;20476;-53
2022/05/21 11:27:01;;;;;;;8.82;2.38;;;;;;;22.54;nan;102169.72;5057404;28;20032;-50
2022/05/21 11:29:35;;;;;;;8.30;2.85;;;;;;;22.56;nan;102167.84;5046715;28;20468;-51
2022/05/21 11:37:34;;;;;;;8.00;2.78;;;;;;;23.21;nan;102150.25;5063476;28;20052;-49
2022/05/21 11:40:01;;;;;;;8.77;2.92;;;;;;;23.42;nan;102167.72;5049829;28;20085;-49
2022/05/21 11:42:37;;;;;;;8.65;3.20;;;;;;;23.21;nan;102180.69;5055284;28;20040;-47
2022/05/21 11:45:08;;;;;;;13.50;4.57;;;;;;;22.77;nan;102178.13;5054426;28;20460;-48
2022/05/21 11:47:49;;;;;;;10.95;2.97;;;;;;;22.97;nan;102171.53;5062954;28;20106;-51
2022/05/21 11:50:22;;;;;;;8.85;2.47;;;;;;;22.15;nan;102117.56;5067819;28;20029;-46
2022/05/21 11:52:52;;;;;;;8.70;2.60;;;;;;;21.62;nan;102112.69;5055687;28;20045;-47
2022/05/21 11:55:21;;;;;;;9.13;2.70;;;;;;;21.59;nan;102171.81;5065249;28;20033;-46
2022/05/21 11:57:52;;;;;;;10.52;3.65;;;;;;;21.45;nan;102107.44;5063540;28;20123;-48
2022/05/21 12:00:18;;;;;;;9.10;2.95;;;;;;;21.73;nan;102169.19;5039166;28;20056;-48
2022/05/21 12:02:53;;;;;;;9.47;3.03;;;;;;;21.53;nan;102168.59;5051001;28;20428;-48
2022/05/21 12:05:38;;;;;;;7.72;2.97;;;;;;;21.62;nan;102160.91;5059558;28;20332;-51
2022/05/21 12:08:33;;;;;;;7.18;3.00;;;;;;;21.70;nan;102172.03;5072105;28;20053;-46
2022/05/21 12:11:02;;;;;;;13.45;2.85;;;;;;;21.56;nan;102161.25;5056928;28;20035;-48
2022/05/21 12:13:33;;;;;;;8.80;2.63;;;;;;;22.07;nan;102169.91;5063691;28;20350;-50
2022/05/21 12:16:21;;;;;;;11.07;2.28;;;;;;;23.24;nan;102185.00;5064787;28;20032;-49
2022/05/21 12:18:54;;;;;;;8.75;3.45;;;;;;;24.03;nan;102177.97;5052954;28;20044;-45
2022/05/21 12:21:35;;;;;;;6.05;2.40;;;;;;;24.86;nan;102169.50;5059440;28;20108;-47